Time;durP1;ratioP1;P1;durP2;ratioP2;P2;SDS_P1;SDS_P2;PMS_P1;PMS_P2;Temp;Humidity;BMP_temperature;BMP_pressure;BME280_temperature;BME280_humidity;BME280_pressure;Samples;Min_cycle;Max_cycle;Signal;HPM_P1;HPM_P2
2022/09/15 00:08:42;;;;;;;3.07;2.20;;;19.40;99.90;;;;;;20664598;28;20207;-72
2022/09/15 00:18:45;;;;;;;4.23;2.20;;;19.40;99.90;;;;;;20681211;28;20250;-72
2022/09/15 00:28:47;;;;;;;4.63;2.00;;;19.30;99.90;;;;;;20681501;28;20212;-73
2022/09/15 00:38:50;;;;;;;2.97;2.10;;;19.30;99.90;;;;;;20679589;28;20281;-72
2022/09/15 00:49:20;;;;;;;2.80;1.93;;;19.40;99.90;;;;;;20679325;28;20208;-72
2022/09/15 00:59:26;;;;;;;4.53;2.30;;;19.30;99.90;;;;;;20678083;28;20728;-72
2022/09/15 01:09:40;;;;;;;7.17;2.97;;;19.30;99.90;;;;;;20676504;28;20661;-72
2022/09/15 01:20:31;;;;;;;2.90;2.00;;;19.20;99.90;;;;;;20676804;28;20610;-72
2022/09/15 01:30:39;;;;;;;5.20;2.10;;;19.20;99.90;;;;;;20676077;28;20231;-73
2022/09/15 01:40:49;;;;;;;4.20;1.80;;;19.20;99.90;;;;;;20675233;28;20219;-76
2022/09/15 01:50:54;;;;;;;5.73;2.07;;;19.20;99.90;;;;;;20674150;28;20299;-72
2022/09/15 02:01:28;;;;;;;2.57;2.30;;;19.10;99.90;;;;;;20673686;28;20214;-71
2022/09/15 02:11:31;;;;;;;2.40;2.20;;;19.10;99.90;;;;;;20665586;28;20232;-72
2022/09/15 02:21:52;;;;;;;7.47;2.03;;;19.10;99.90;;;;;;20671413;28;20238;-72
2022/09/15 02:31:58;;;;;;;4.43;1.80;;;19.10;99.90;;;;;;20671373;28;20262;-72
2022/09/15 02:42:06;;;;;;;4.13;1.87;;;19.10;99.90;;;;;;20670516;28;20216;-73
2022/09/15 02:52:08;;;;;;;2.00;1.53;;;19.10;99.90;;;;;;20669966;28;20277;-72
2022/09/15 03:02:11;;;;;;;2.67;1.77;;;19.10;99.90;;;;;;20669469;28;20207;-72
2022/09/15 03:12:13;;;;;;;2.47;1.90;;;19.10;99.90;;;;;;20668279;28;20695;-72
2022/09/15 03:22:14;;;;;;;2.77;1.80;;;19.10;99.90;;;;;;20667378;28;20245;-76
2022/09/15 03:32:16;;;;;;;3.13;2.10;;;19.10;99.90;;;;;;20667299;28;20644;-73
2022/09/15 03:42:18;;;;;;;4.27;2.00;;;19.10;99.90;;;;;;20666970;28;20208;-73
2022/09/15 03:52:20;;;;;;;2.97;1.90;;;19.10;99.90;;;;;;20668337;28;20703;-73
2022/09/15 04:02:21;;;;;;;1.40;1.30;;;19.10;99.90;;;;;;20671304;28;20377;-78
2022/09/15 04:12:23;;;;;;;2.00;1.50;;;19.10;99.90;;;;;;20687899;28;20231;-78
2022/09/15 04:22:26;;;;;;;1.20;1.10;;;19.00;99.90;;;;;;20673933;28;20243;-80
2022/09/15 04:32:28;;;;;;;2.30;1.43;;;19.10;99.90;;;;;;20666711;28;20238;-77
2022/09/15 04:42:30;;;;;;;4.50;2.40;;;19.10;99.90;;;;;;20673252;28;20213;-80
2022/09/15 04:52:32;;;;;;;1.90;1.77;;;19.00;99.90;;;;;;20678832;28;20245;-73
2022/09/15 05:02:33;;;;;;;5.77;2.90;;;18.60;99.90;;;;;;20677654;28;20254;-78
2022/09/15 05:12:35;;;;;;;5.40;3.00;;;18.20;99.90;;;;;;20676613;28;20324;-75
2022/09/15 05:22:37;;;;;;;4.13;1.40;;;18.00;99.90;;;;;;20674891;28;20241;-78
2022/09/15 05:32:42;;;;;;;5.57;1.20;;;17.90;99.90;;;;;;20674233;28;20585;-74
2022/09/15 05:42:44;;;;;;;0.70;0.70;;;17.80;99.90;;;;;;20672679;28;20272;-74
2022/09/15 05:52:50;;;;;;;3.33;1.20;;;17.90;99.90;;;;;;20671988;28;20258;-77
2022/09/15 06:02:51;;;;;;;1.80;0.80;;;17.80;99.90;;;;;;20672377;28;20268;-75
2022/09/15 06:12:54;;;;;;;3.03;1.33;;;17.70;99.90;;;;;;20672527;28;20237;-70
2022/09/15 06:22:56;;;;;;;3.20;1.43;;;17.70;99.90;;;;;;20670418;28;20203;-71
2022/09/15 06:32:57;;;;;;;2.43;1.70;;;17.80;99.90;;;;;;20669567;28;20287;-75
2022/09/15 06:42:59;;;;;;;5.47;1.80;;;17.80;99.90;;;;;;20667853;28;20263;-76
2022/09/15 06:53:00;;;;;;;4.00;1.60;;;17.80;99.90;;;;;;20668303;28;20779;-76
2022/09/15 07:03:02;;;;;;;2.00;1.80;;;17.80;99.90;;;;;;20667489;28;20206;-76
2022/09/15 07:13:04;;;;;;;4.00;2.40;;;17.80;99.90;;;;;;20667097;28;20722;-75
2022/09/15 07:23:06;;;;;;;13.17;3.40;;;17.50;99.90;;;;;;20666536;28;20290;-74
2022/09/15 07:33:10;;;;;;;5.13;3.13;;;17.40;99.90;;;;;;20666688;28;20703;-70
2022/09/15 07:43:12;;;;;;;5.10;3.60;;;17.30;99.90;;;;;;20665424;28;20209;-76
2022/09/15 07:53:13;;;;;;;10.27;5.63;;;17.30;99.90;;;;;;20664460;28;20268;-75
2022/09/15 08:03:15;;;;;;;9.63;4.10;;;17.40;99.90;;;;;;20647195;28;20280;-75
2022/09/15 08:13:17;;;;;;;7.50;4.30;;;17.40;99.90;;;;;;20665643;28;20727;-76
2022/09/15 08:23:19;;;;;;;9.93;4.77;;;17.50;99.90;;;;;;20693065;28;20213;-69
2022/09/15 08:33:21;;;;;;;9.63;4.80;;;17.50;99.90;;;;;;20688040;28;20238;-70
2022/09/15 08:43:27;;;;;;;7.70;4.80;;;17.70;99.90;;;;;;20677744;28;20216;-76
2022/09/15 08:53:41;;;;;;;8.90;5.10;;;17.70;99.90;;;;;;20677802;28;20245;-74
2022/09/15 09:04:17;;;;;;;16.93;8.50;;;17.80;99.90;;;;;;20679389;28;20213;-71
2022/09/15 09:14:56;;;;;;;8.67;4.00;;;17.90;99.90;;;;;;20679795;28;20253;-71
2022/09/15 09:25:01;;;;;;;8.20;4.30;;;18.10;99.90;;;;;;20675722;28;20274;-75
2022/09/15 09:35:30;;;;;;;6.07;2.70;;;18.40;99.90;;;;;;20674587;28;20290;-72
2022/09/15 09:45:31;;;;;;;7.50;2.80;;;18.60;99.90;;;;;;20674003;28;20738;-75
2022/09/15 09:55:33;;;;;;;6.00;2.70;;;18.70;98.80;;;;;;20673284;28;20234;-75
2022/09/15 10:05:35;;;;;;;6.40;2.70;;;18.70;98.20;;;;;;20673078;28;20663;-71
2022/09/15 10:15:37;;;;;;;5.50;2.57;;;18.80;97.60;;;;;;20672873;28;20484;-74
2022/09/15 10:25:39;;;;;;;7.47;2.57;;;18.90;96.80;;;;;;20671675;28;20205;-75
2022/09/15 10:36:04;;;;;;;3.43;2.00;;;19.10;96.40;;;;;;20670278;28;20281;-72
2022/09/15 10:46:29;;;;;;;3.17;2.00;;;19.10;95.60;;;;;;20669380;28;20216;-73
2022/09/15 10:56:35;;;;;;;3.37;1.80;;;19.10;95.40;;;;;;20667907;28;20242;-73
2022/09/15 11:07:06;;;;;;;3.53;1.90;;;19.20;94.90;;;;;;20666945;28;20730;-69
2022/09/15 11:17:30;;;;;;;3.07;1.77;;;19.30;94.50;;;;;;20667189;28;20612;-73
2022/09/15 11:27:42;;;;;;;2.07;1.50;;;19.50;93.60;;;;;;20665957;28;20271;-72
2022/09/15 11:37:49;;;;;;;8.17;3.63;;;19.40;91.80;;;;;;20663878;28;20296;-71
2022/09/15 11:47:57;;;;;;;7.17;1.87;;;19.50;91.40;;;;;;20666655;28;20211;-70
2022/09/15 11:58:08;;;;;;;2.90;1.70;;;19.70;90.80;;;;;;20689270;28;20247;-71
2022/09/15 12:08:31;;;;;;;4.40;1.70;;;19.50;90.20;;;;;;20689865;28;20213;-70
2022/09/15 12:18:59;;;;;;;2.13;1.80;;;19.60;90.60;;;;;;20688981;28;20580;-70
2022/09/15 12:29:03;;;;;;;8.87;5.77;;;19.90;90.60;;;;;;20653594;28;20554;-71
2022/09/15 12:39:22;;;;;;;1.70;1.60;;;20.00;90.50;;;;;;20689845;28;20269;-69
2022/09/15 12:49:31;;;;;;;3.73;2.67;;;19.90;90.50;;;;;;20691900;28;20216;-73
2022/09/15 12:59:33;;;;;;;3.23;2.33;;;19.80;89.50;;;;;;20695253;28;20601;-70
2022/09/15 13:10:05;;;;;;;4.23;1.80;;;19.80;87.90;;;;;;20675773;28;20271;-71
2022/09/15 13:20:13;;;;;;;3.63;1.67;;;19.70;86.30;;;;;;20657835;28;20251;-69
2022/09/15 13:30:35;;;;;;;3.30;1.80;;;19.90;85.40;;;;;;20666251;28;20210;-72
2022/09/15 13:40:45;;;;;;;2.87;1.90;;;20.00;82.60;;;;;;20674845;28;20240;-70
2022/09/15 13:51:00;;;;;;;5.27;2.10;;;20.00;82.30;;;;;;20673615;28;20250;-78
2022/09/15 14:01:06;;;;;;;6.57;2.20;;;19.80;82.50;;;;;;20673664;28;20215;-78
2022/09/15 14:11:13;;;;;;;5.50;2.27;;;19.30;83.30;;;;;;20671447;28;20696;-68
2022/09/15 14:21:18;;;;;;;3.07;2.10;;;19.10;80.90;;;;;;20671126;28;20304;-65
2022/09/15 14:31:34;;;;;;;5.20;2.40;;;19.10;80.30;;;;;;20669968;28;20256;-69
2022/09/15 14:41:39;;;;;;;3.80;2.20;;;19.00;80.00;;;;;;20669848;28;20246;-69
2022/09/15 14:51:42;;;;;;;4.20;2.80;;;19.20;79.50;;;;;;20665240;28;20235;-71
2022/09/15 15:01:59;;;;;;;7.03;3.20;;;19.20;79.70;;;;;;20667302;28;20215;-71
2022/09/15 15:12:06;;;;;;;4.63;3.47;;;19.20;81.20;;;;;;20665991;28;20234;-71
2022/09/15 15:22:10;;;;;;;3.77;3.20;;;19.20;82.00;;;;;;20592143;28;20248;-72
2022/09/15 15:32:19;;;;;;;8.53;3.40;;;19.00;83.30;;;;;;20569552;28;20648;-72
2022/09/15 15:42:23;;;;;;;5.30;3.40;;;19.00;82.00;;;;;;20586068;28;20281;-71
2022/09/15 15:52:24;;;;;;;4.77;3.47;;;19.00;80.80;;;;;;20585122;28;20245;-70
2022/09/15 16:02:26;;;;;;;3.47;2.87;;;19.00;79.30;;;;;;20585535;28;20606;-71
2022/09/15 16:12:28;;;;;;;4.80;2.77;;;18.90;76.80;;;;;;20585329;28;20601;-71
2022/09/15 16:22:36;;;;;;;8.90;3.40;;;19.00;75.90;;;;;;20663524;28;20240;-72
2022/09/15 16:32:39;;;;;;;7.77;3.67;;;18.90;75.20;;;;;;20665012;28;20238;-71
2022/09/15 16:42:41;;;;;;;4.97;3.87;;;18.80;74.00;;;;;;20679190;28;20354;-71
2022/09/15 16:52:42;;;;;;;4.53;3.47;;;18.80;74.10;;;;;;20678850;28;20239;-70
2022/09/15 17:02:45;;;;;;;3.30;2.57;;;18.70;75.10;;;;;;20677504;28;20214;-70
2022/09/15 17:12:47;;;;;;;4.00;2.57;;;18.80;75.80;;;;;;20677850;28;20263;-71
2022/09/15 17:22:49;;;;;;;3.10;2.60;;;18.70;76.00;;;;;;20677615;28;20212;-70
2022/09/15 17:33:00;;;;;;;6.10;3.10;;;18.60;76.70;;;;;;20677833;28;20587;-73
2022/09/15 17:43:01;;;;;;;3.40;2.90;;;18.50;77.50;;;;;;20672935;28;20211;-78
2022/09/15 17:53:25;;;;;;;4.23;3.33;;;18.40;78.30;;;;;;20673474;28;20238;-78
2022/09/15 18:03:32;;;;;;;4.33;3.00;;;18.30;79.40;;;;;;20671037;28;20250;-73
2022/09/15 18:13:33;;;;;;;5.13;3.13;;;18.20;80.50;;;;;;20660885;28;20309;-71
2022/09/15 18:23:36;;;;;;;4.77;3.20;;;18.10;81.40;;;;;;20662715;28;20670;-75
2022/09/15 18:33:38;;;;;;;6.10;3.30;;;17.90;82.60;;;;;;20585996;28;20285;-75
2022/09/15 18:43:39;;;;;;;6.97;3.80;;;17.80;84.00;;;;;;20590411;28;20214;-74
2022/09/15 18:53:41;;;;;;;6.20;4.50;;;17.70;85.20;;;;;;20588764;28;20233;-74
2022/09/15 19:03:43;;;;;;;5.63;4.07;;;17.70;86.30;;;;;;20655525;28;20626;-73
2022/09/15 19:13:45;;;;;;;9.20;4.20;;;17.70;87.10;;;;;;20668329;28;20244;-73
2022/09/15 19:23:46;;;;;;;5.37;4.10;;;17.70;88.00;;;;;;20614578;28;20218;-73
2022/09/15 19:33:48;;;;;;;9.13;4.30;;;17.70;88.10;;;;;;20593995;28;20690;-72
2022/09/15 19:43:50;;;;;;;5.73;4.20;;;17.60;87.90;;;;;;20666758;28;20213;-73
2022/09/15 19:53:54;;;;;;;4.80;4.03;;;17.60;87.70;;;;;;20666306;28;20264;-72
2022/09/15 20:03:56;;;;;;;4.43;3.87;;;17.50;87.60;;;;;;20665976;28;20212;-73
2022/09/15 20:13:58;;;;;;;6.40;5.47;;;17.50;87.80;;;;;;20648353;28;20241;-72
2022/09/15 20:24:00;;;;;;;5.67;4.70;;;17.40;87.80;;;;;;20681483;28;20286;-73
2022/09/15 20:34:02;;;;;;;8.27;5.60;;;17.40;88.00;;;;;;20680289;28;20292;-75
2022/09/15 20:44:08;;;;;;;5.73;4.23;;;17.30;88.40;;;;;;20677542;28;20214;-74
2022/09/15 20:54:10;;;;;;;9.97;5.10;;;17.20;88.50;;;;;;20679167;28;20258;-73
2022/09/15 21:04:11;;;;;;;8.97;4.70;;;17.30;89.40;;;;;;20678398;28;20664;-73
2022/09/15 21:14:13;;;;;;;6.00;4.73;;;17.30;90.10;;;;;;20678047;28;20241;-74
2022/09/15 21:24:15;;;;;;;6.67;4.63;;;17.20;90.40;;;;;;20675888;28;20579;-73
2022/09/15 21:34:17;;;;;;;5.00;4.23;;;17.10;90.70;;;;;;20676306;28;20237;-74
2022/09/15 21:44:19;;;;;;;8.57;4.33;;;17.10;90.90;;;;;;20676084;28;20252;-73
2022/09/15 21:54:20;;;;;;;5.30;4.10;;;17.10;91.10;;;;;;20678577;28;20299;-74
2022/09/15 22:04:22;;;;;;;7.43;4.50;;;17.20;91.10;;;;;;20683897;28;20617;-74
2022/09/15 22:14:24;;;;;;;4.90;4.07;;;17.30;91.00;;;;;;20672152;28;20736;-74
2022/09/15 22:24:25;;;;;;;6.30;3.97;;;17.30;91.20;;;;;;20668127;28;20206;-74
2022/09/15 22:34:28;;;;;;;6.90;4.30;;;17.20;91.30;;;;;;20652145;28;20699;-73
2022/09/15 22:44:29;;;;;;;6.30;4.30;;;17.00;91.60;;;;;;20671109;28;20213;-73
2022/09/15 22:54:31;;;;;;;4.57;4.10;;;17.10;92.00;;;;;;20669978;28;20698;-73
2022/09/15 23:04:33;;;;;;;6.03;4.00;;;17.00;92.30;;;;;;20669380;28;20219;-74
2022/09/15 23:14:35;;;;;;;4.73;4.00;;;17.00;92.50;;;;;;20668907;28;20276;-73
2022/09/15 23:24:37;;;;;;;6.93;3.97;;;16.90;92.70;;;;;;20668148;28;20256;-73
2022/09/15 23:34:40;;;;;;;9.77;3.70;;;16.90;92.70;;;;;;20667351;28;20242;-74
2022/09/15 23:44:41;;;;;;;8.40;4.43;;;16.80;92.90;;;;;;20666790;28;20582;-74
2022/09/15 23:54:43;;;;;;;10.97;4.13;;;16.70;93.20;;;;;;20666447;28;20616;-74
